createdAt,value
2022-10-04T00:02:07.733Z,7.72
2022-10-04T00:07:01.087Z,10.80
2022-10-04T00:11:48.615Z,4.88
2022-10-04T00:16:39.396Z,8.75
2022-10-04T00:21:24.843Z,7.70
2022-10-04T00:26:17.789Z,6.78
2022-10-04T00:31:22.035Z,6.55
2022-10-04T00:36:37.146Z,6.07
2022-10-04T00:41:25.953Z,5.47
2022-10-04T00:46:16.449Z,3.60
2022-10-04T00:51:10.279Z,6.32
2022-10-04T00:55:59.975Z,5.53
2022-10-04T01:00:51.441Z,6.47
2022-10-04T01:05:39.775Z,5.63
2022-10-04T01:10:30.705Z,4.93
2022-10-04T01:15:21.150Z,8.35
2022-10-04T01:20:33.103Z,6.93
2022-10-04T01:25:46.241Z,7.18
2022-10-04T01:30:31.692Z,7.15
2022-10-04T01:35:19.354Z,8.75
2022-10-04T01:40:05.371Z,6.70
2022-10-04T01:44:59.602Z,4.57
2022-10-04T01:49:49.131Z,7.20
2022-10-04T01:54:37.647Z,7.35
2022-10-04T01:59:27.377Z,6.60
2022-10-04T02:04:22.029Z,6.30
2022-10-04T02:09:13.251Z,5.22
2022-10-04T02:13:58.883Z,9.52
2022-10-04T02:18:46.010Z,8.57
2022-10-04T02:23:35.278Z,9.30
2022-10-04T02:28:22.176Z,6.43
2022-10-04T02:33:07.778Z,5.68
2022-10-04T02:38:01.778Z,8.73
2022-10-04T02:42:53.186Z,6.30
2022-10-04T02:47:47.818Z,8.60
2022-10-04T02:52:39.534Z,4.78
2022-10-04T02:57:26.587Z,4.43
2022-10-04T03:02:30.028Z,6.35
2022-10-04T03:07:15.697Z,6.10
2022-10-04T03:12:00.964Z,4.10
2022-10-04T03:16:48.489Z,5.10
2022-10-04T03:21:37.368Z,7.18
2022-10-04T03:26:31.915Z,6.93
2022-10-04T03:31:20.221Z,5.47
2022-10-04T03:36:06.119Z,4.95
2022-10-04T03:40:59.267Z,4.15
2022-10-04T03:45:45.405Z,7.40
2022-10-04T03:50:33.772Z,9.55
2022-10-04T03:55:20.766Z,10.57
2022-10-04T04:00:09.816Z,8.25
2022-10-04T04:05:06.021Z,9.18
2022-10-04T04:09:55.848Z,7.68
2022-10-04T04:14:44.382Z,6.38
2022-10-04T04:19:32.391Z,6.47
2022-10-04T04:24:26.456Z,9.98
2022-10-04T04:29:19.625Z,10.65
2022-10-04T04:34:07.555Z,8.68
2022-10-04T04:39:07.601Z,10.38
2022-10-04T04:43:53.665Z,9.68
2022-10-04T04:48:39.990Z,8.65
2022-10-04T04:53:29.485Z,13.50
2022-10-04T04:58:22.273Z,12.57
2022-10-04T05:03:09.781Z,12.63
2022-10-04T05:08:13.905Z,13.90
2022-10-04T05:13:00.007Z,15.75
2022-10-04T05:17:48.303Z,10.02
2022-10-04T05:22:35.274Z,10.80
2022-10-04T05:27:27.297Z,16.77
2022-10-04T05:32:24.680Z,20.17
2022-10-04T05:37:28.213Z,12.52
2022-10-04T05:42:23.567Z,15.63
2022-10-04T05:47:11.092Z,12.82
2022-10-04T05:52:01.171Z,14.40
2022-10-04T05:57:22.112Z,16.73
2022-10-04T06:02:20.029Z,9.10
2022-10-04T06:07:18.502Z,11.02
2022-10-04T06:12:12.737Z,18.33
2022-10-04T06:17:22.251Z,36.42
2022-10-04T06:22:19.347Z,39.30
2022-10-04T06:27:14.156Z,27.95
2022-10-04T06:32:27.776Z,40.28
2022-10-04T06:37:23.651Z,23.17
2022-10-04T06:42:34.459Z,16.23
2022-10-04T06:47:35.181Z,18.80
2022-10-04T06:52:46.034Z,22.83
2022-10-04T06:57:52.619Z,24.92
2022-10-04T07:02:43.756Z,22.83
2022-10-04T07:07:42.165Z,25.92
2022-10-04T07:12:28.589Z,19.73
2022-10-04T07:17:21.876Z,15.98
2022-10-04T07:22:19.471Z,11.68
2022-10-04T07:27:06.901Z,14.20
2022-10-04T07:31:56.280Z,14.45
2022-10-04T07:36:52.091Z,10.77
2022-10-04T07:41:42.548Z,23.27
2022-10-04T07:46:46.330Z,23.63
2022-10-04T07:51:40.181Z,21.98
2022-10-04T07:56:37.037Z,18.23
2022-10-04T08:01:33.389Z,21.70
2022-10-04T08:06:23.520Z,13.00
2022-10-04T08:11:22.748Z,18.02
2022-10-04T08:16:24.225Z,9.85
2022-10-04T08:21:11.518Z,6.93
2022-10-04T08:26:05.921Z,7.20
2022-10-04T08:31:17.108Z,5.82
2022-10-04T08:36:17.765Z,10.27
2022-10-04T08:41:39.534Z,8.00
2022-10-04T08:46:59.765Z,8.95
2022-10-04T08:52:17.630Z,13.43
2022-10-04T08:57:23.086Z,10.18
2022-10-04T09:02:46.911Z,7.90
2022-10-04T09:08:26.305Z,9.95
2022-10-04T09:13:39.418Z,8.00
2022-10-04T09:18:52.806Z,6.40
2022-10-04T09:24:19.494Z,5.40
2022-10-04T09:29:40.396Z,6.80
2022-10-04T09:34:53.939Z,5.90
2022-10-04T09:40:11.130Z,7.95
2022-10-04T09:45:20.539Z,5.15
2022-10-04T09:50:37.454Z,7.50
2022-10-04T09:55:45.832Z,5.18
2022-10-04T10:00:38.177Z,5.97
2022-10-04T10:05:40.113Z,7.78
2022-10-04T10:10:51.875Z,5.00
2022-10-04T10:15:49.401Z,5.10
2022-10-04T10:21:02.826Z,5.82
2022-10-04T10:26:04.186Z,4.75
2022-10-04T10:31:08.839Z,7.95
2022-10-04T10:36:07.435Z,6.82
2022-10-04T10:41:13.435Z,7.30
2022-10-04T10:46:07.758Z,3.75
2022-10-04T10:51:12.971Z,6.10
2022-10-04T10:56:35.816Z,5.20
2022-10-04T11:01:56.442Z,5.43
2022-10-04T11:07:14.440Z,4.57
2022-10-04T11:12:32.080Z,4.72
2022-10-04T11:17:38.036Z,3.47
2022-10-04T11:22:53.030Z,7.78
2022-10-04T11:27:54.386Z,4.78
2022-10-04T11:33:17.616Z,5.07
2022-10-04T11:38:14.895Z,5.45
2022-10-04T11:43:21.796Z,4.97
2022-10-04T11:48:19.897Z,5.05
2022-10-04T11:53:31.183Z,5.00
2022-10-04T11:58:27.700Z,3.95
2022-10-04T12:03:42.410Z,6.22
2022-10-04T12:08:36.920Z,4.03
2022-10-04T12:13:39.334Z,4.50
2022-10-04T12:18:56.400Z,3.88
2022-10-04T12:24:04.407Z,2.83
2022-10-04T12:29:18.406Z,6.18
2022-10-04T12:34:16.393Z,8.20
2022-10-04T12:39:18.342Z,8.07
2022-10-04T12:44:21.340Z,9.90
2022-10-04T12:49:17.531Z,11.32
2022-10-04T12:54:09.869Z,10.93
2022-10-04T12:59:12.628Z,10.57
2022-10-04T13:04:23.944Z,14.40
2022-10-04T13:14:33.061Z,16.33
2022-10-04T13:19:27.548Z,10.38
2022-10-04T13:24:23.799Z,11.98
2022-10-04T13:29:18.859Z,7.13
2022-10-04T13:34:20.047Z,7.47
2022-10-04T13:39:27.464Z,8.05
2022-10-04T13:44:55.591Z,8.45
2022-10-04T13:49:58.165Z,11.43
2022-10-04T13:55:04.666Z,6.25
2022-10-04T13:59:56.770Z,7.63
2022-10-04T14:05:19.277Z,8.82
2022-10-04T14:10:24.310Z,7.40
2022-10-04T14:15:36.383Z,9.13
2022-10-04T14:20:50.488Z,7.90
2022-10-04T14:26:04.701Z,8.30
2022-10-04T14:31:03.714Z,8.23
2022-10-04T14:35:54.496Z,7.00
2022-10-04T14:40:48.758Z,8.63
2022-10-04T14:45:46.366Z,10.27
2022-10-04T14:50:46.595Z,8.90
2022-10-04T14:55:58.147Z,6.53
2022-10-04T15:01:08.154Z,9.63
2022-10-04T15:06:12.314Z,6.68
2022-10-04T15:11:02.396Z,8.27
2022-10-04T15:16:01.792Z,10.23
2022-10-04T15:20:57.378Z,8.32
2022-10-04T15:25:46.397Z,7.68
2022-10-04T15:30:48.491Z,5.93
2022-10-04T15:35:41.171Z,8.80
2022-10-04T15:40:38.021Z,6.85
2022-10-04T15:46:00.764Z,9.93
2022-10-04T15:51:04.647Z,6.97
2022-10-04T15:56:25.231Z,6.05
2022-10-04T16:01:41.144Z,7.35
2022-10-04T16:06:31.290Z,10.25
2022-10-04T16:11:31.527Z,12.60
2022-10-04T16:16:51.924Z,8.10
2022-10-04T16:21:45.314Z,9.68
2022-10-04T16:27:00.144Z,6.15
2022-10-04T16:31:58.437Z,7.78
2022-10-04T16:36:54.377Z,8.73
2022-10-04T16:41:45.452Z,10.20
2022-10-04T16:46:42.607Z,9.53
2022-10-04T16:51:53.619Z,9.65
2022-10-04T16:57:22.273Z,16.13
2022-10-04T17:02:31.963Z,11.18
2022-10-04T17:07:29.695Z,16.35
2022-10-04T17:12:21.601Z,14.80
2022-10-04T17:17:18.731Z,15.80
2022-10-04T17:22:18.152Z,11.70
2022-10-04T17:27:28.057Z,11.88
2022-10-04T17:32:25.892Z,15.75
2022-10-04T17:37:22.933Z,11.93
2022-10-04T17:42:36.309Z,13.48
2022-10-04T17:47:49.891Z,14.05
2022-10-04T17:52:57.711Z,18.90
2022-10-04T17:57:51.789Z,15.20
2022-10-04T18:02:54.998Z,14.40
2022-10-04T18:07:45.458Z,13.95
2022-10-04T18:12:35.542Z,13.80
2022-10-04T18:17:33.237Z,14.23
2022-10-04T18:22:20.336Z,19.25
2022-10-04T18:27:18.560Z,16.13
2022-10-04T18:32:05.251Z,13.38
2022-10-04T18:37:07.811Z,21.23
2022-10-04T18:42:21.685Z,18.85
2022-10-04T18:47:21.423Z,15.23
2022-10-04T18:52:24.947Z,18.13
2022-10-04T18:57:24.429Z,17.52
2022-10-04T19:02:12.623Z,16.48
2022-10-04T19:07:05.339Z,16.23
2022-10-04T19:11:57.536Z,18.40
2022-10-04T19:16:49.019Z,15.55
2022-10-04T19:21:46.627Z,19.02
2022-10-04T19:26:38.024Z,19.17
2022-10-04T19:31:33.517Z,19.23
2022-10-04T19:36:34.054Z,18.90
2022-10-04T19:41:29.603Z,17.92
2022-10-04T19:46:26.264Z,12.80
2022-10-04T19:51:23.240Z,17.67
2022-10-04T19:56:12.321Z,14.40
2022-10-04T20:00:57.898Z,15.18
2022-10-04T20:05:47.854Z,16.05
2022-10-04T20:10:38.129Z,16.52
2022-10-04T20:15:46.749Z,13.98
2022-10-04T20:21:04.397Z,16.80
2022-10-04T20:26:10.199Z,23.92
2022-10-04T20:30:57.498Z,18.30
2022-10-04T20:36:04.233Z,18.02
2022-10-04T20:40:49.545Z,16.95
2022-10-04T20:45:46.906Z,19.40
2022-10-04T20:50:36.520Z,15.82
2022-10-04T20:55:28.886Z,17.27
2022-10-04T21:00:22.366Z,17.65
2022-10-04T21:05:20.564Z,16.75
2022-10-04T21:10:18.137Z,15.40
2022-10-04T21:15:09.401Z,17.33
2022-10-04T21:19:54.720Z,14.02
2022-10-04T21:24:43.539Z,16.10
2022-10-04T21:29:28.852Z,15.25
2022-10-04T21:34:24.283Z,12.25
2022-10-04T21:39:19.383Z,13.23
2022-10-04T21:44:07.012Z,16.13
2022-10-04T21:48:52.484Z,18.42
2022-10-04T21:53:37.497Z,21.08
2022-10-04T21:58:22.755Z,16.52
2022-10-04T22:03:10.493Z,15.23
2022-10-04T22:07:55.824Z,20.27
2022-10-04T22:12:40.872Z,19.17
2022-10-04T22:17:26.255Z,21.20
2022-10-04T22:22:18.844Z,20.88
2022-10-04T22:27:04.523Z,16.92
2022-10-04T22:31:52.961Z,17.65
2022-10-04T22:36:40.462Z,16.52
2022-10-04T22:41:32.004Z,16.60
2022-10-04T22:46:19.705Z,18.42
2022-10-04T22:51:05.121Z,20.05
2022-10-04T22:55:51.081Z,18.42
2022-10-04T23:00:38.882Z,23.30
2022-10-04T23:05:24.727Z,20.33
2022-10-04T23:10:10.656Z,19.23
2022-10-04T23:14:56.047Z,23.05
2022-10-04T23:19:43.791Z,23.52
2022-10-04T23:24:29.288Z,30.70
2022-10-04T23:29:20.124Z,32.03
2022-10-04T23:34:05.492Z,28.85
2022-10-04T23:38:57.215Z,33.22
2022-10-04T23:43:43.147Z,23.65
2022-10-04T23:48:32.132Z,25.67
2022-10-04T23:53:26.912Z,26.73
2022-10-04T23:58:18.397Z,28.20
